Time;durP1;ratioP1;P1;durP2;ratioP2;P2;SDS_P1;SDS_P2;PMS_P1;PMS_P2;Temp;Humidity;BMP_temperature;BMP_pressure;BME280_temperature;BME280_humidity;BME280_pressure;Samples;Min_cycle;Max_cycle;Signal;HPM_P1;HPM_P2
2022/04/12 00:00:00;;;;;;;58.93;10.87;;;;;;;;;;4990840;28;20321;-49
2022/04/12 00:02:27;;;;;;;64.97;12.43;;;;;;;;;;4990661;28;20192;-49
2022/04/12 00:04:53;;;;;;;65.43;12.00;;;;;;;;;;4990930;28;20204;-49
2022/04/12 00:07:18;;;;;;;56.57;10.57;;;;;;;;;;4990987;28;20331;-49
2022/04/12 00:09:44;;;;;;;29.60;5.80;;;;;;;;;;4990890;28;20260;-49
2022/04/12 00:12:10;;;;;;;46.13;8.53;;;;;;;;;;4990912;28;20217;-49
2022/04/12 00:14:36;;;;;;;49.33;9.20;;;;;;;;;;4990658;28;20245;-49
2022/04/12 00:19:47;;;;;;;60.30;11.00;;;;;;;;;;4990511;28;20213;-49
2022/04/12 00:22:13;;;;;;;23.60;4.77;;;;;;;;;;4990873;28;20658;-49
2022/04/12 00:24:39;;;;;;;53.53;9.73;;;;;;;;;;4990673;28;20243;-48
2022/04/12 00:27:05;;;;;;;58.43;10.80;;;;;;;;;;4990445;28;20217;-49
2022/04/12 00:29:32;;;;;;;54.47;10.37;;;;;;;;;;4990562;28;20176;-49
2022/04/12 00:31:58;;;;;;;39.90;7.73;;;;;;;;;;4990830;28;20191;-49
2022/04/12 00:34:24;;;;;;;43.80;8.63;;;;;;;;;;4990656;28;20210;-48
2022/04/12 00:36:50;;;;;;;53.17;10.27;;;;;;;;;;4990611;28;20239;-49
2022/04/12 00:39:16;;;;;;;56.60;10.87;;;;;;;;;;4990807;28;20217;-49
2022/04/12 00:41:43;;;;;;;31.33;6.37;;;;;;;;;;4989309;28;20214;-49
2022/04/12 00:44:09;;;;;;;44.23;8.47;;;;;;;;;;4991044;28;20461;-49
2022/04/12 00:46:35;;;;;;;30.90;6.20;;;;;;;;;;4990101;28;20229;-48
2022/04/12 00:49:01;;;;;;;32.77;6.83;;;;;;;;;;4993681;28;20217;-49
2022/04/12 00:51:27;;;;;;;60.57;11.67;;;;;;;;;;4993809;28;20645;-49
2022/04/12 00:53:54;;;;;;;44.30;8.40;;;;;;;;;;4994423;28;20220;-49
2022/04/12 00:56:20;;;;;;;52.37;10.70;;;;;;;;;;4993983;28;20216;-49
2022/04/12 00:58:49;;;;;;;48.43;9.63;;;;;;;;;;4994767;28;20178;-49
2022/04/12 01:01:15;;;;;;;65.03;12.63;;;;;;;;;;4993861;28;20567;-49
2022/04/12 01:03:41;;;;;;;49.53;9.40;;;;;;;;;;4994216;28;20209;-49
2022/04/12 01:06:07;;;;;;;54.30;10.67;;;;;;;;;;4993618;28;20232;-48
2022/04/12 01:08:34;;;;;;;48.70;9.63;;;;;;;;;;4994099;28;20165;-49
2022/04/12 01:11:04;;;;;;;41.53;7.97;;;;;;;;;;4994187;28;20241;-51
2022/04/12 01:13:30;;;;;;;57.00;10.63;;;;;;;;;;4993946;28;20710;-49
2022/04/12 01:15:56;;;;;;;53.00;10.13;;;;;;;;;;4993488;28;20226;-49
2022/04/12 01:18:22;;;;;;;48.73;9.23;;;;;;;;;;4993741;28;20279;-48
2022/04/12 01:20:48;;;;;;;48.83;9.47;;;;;;;;;;4993656;28;20301;-48
2022/04/12 01:23:16;;;;;;;41.40;7.67;;;;;;;;;;4994394;28;20231;-48
2022/04/12 01:25:42;;;;;;;60.67;11.13;;;;;;;;;;4993704;28;20228;-48
2022/04/12 01:28:09;;;;;;;45.40;8.50;;;;;;;;;;4992188;28;20234;-49
2022/04/12 01:30:35;;;;;;;24.97;4.93;;;;;;;;;;4993626;28;20311;-49
2022/04/12 01:33:01;;;;;;;41.80;7.77;;;;;;;;;;4993918;28;20209;-49
2022/04/12 01:35:27;;;;;;;44.17;8.37;;;;;;;;;;4993228;28;20220;-49
2022/04/12 01:37:53;;;;;;;61.47;11.10;;;;;;;;;;4994156;28;20221;-49
2022/04/12 01:40:20;;;;;;;43.77;8.07;;;;;;;;;;4993191;28;20691;-49
2022/04/12 01:42:46;;;;;;;51.07;9.33;;;;;;;;;;4993486;28;20245;-49
2022/04/12 01:45:12;;;;;;;47.50;8.70;;;;;;;;;;4993082;28;20241;-49
2022/04/12 01:47:38;;;;;;;53.67;9.97;;;;;;;;;;4993514;28;20667;-49
2022/04/12 01:50:06;;;;;;;49.47;8.87;;;;;;;;;;4993676;28;20268;-49
2022/04/12 01:52:32;;;;;;;20.33;4.03;;;;;;;;;;4993366;28;20236;-48
2022/04/12 01:54:58;;;;;;;51.97;9.50;;;;;;;;;;4992991;28;20336;-49
2022/04/12 01:57:24;;;;;;;49.03;8.87;;;;;;;;;;4991764;28;20636;-49
2022/04/12 01:59:50;;;;;;;42.80;8.00;;;;;;;;;;4992526;28;20209;-48
2022/04/12 02:02:16;;;;;;;48.57;8.83;;;;;;;;;;4993894;28;20169;-49
2022/04/12 02:04:42;;;;;;;58.83;10.80;;;;;;;;;;4973331;28;20226;-48
2022/04/12 02:07:08;;;;;;;57.13;10.07;;;;;;;;;;4973106;28;20305;-48
2022/04/12 02:09:34;;;;;;;51.00;8.83;;;;;;;;;;4982712;28;20596;-49
2022/04/12 02:12:00;;;;;;;47.77;8.93;;;;;;;;;;4992578;28;20269;-48
2022/04/12 02:14:26;;;;;;;42.63;8.33;;;;;;;;;;4992210;28;20204;-49
2022/04/12 02:16:52;;;;;;;53.80;9.93;;;;;;;;;;4991432;28;20225;-49
2022/04/12 02:19:18;;;;;;;46.17;8.47;;;;;;;;;;4992460;28;20292;-49
2022/04/12 02:21:44;;;;;;;48.87;9.33;;;;;;;;;;4992166;28;20683;-49
2022/04/12 02:24:10;;;;;;;47.80;8.77;;;;;;;;;;4992542;28;20232;-49
2022/04/12 02:26:36;;;;;;;44.63;8.10;;;;;;;;;;4992527;28;20220;-49
2022/04/12 02:29:02;;;;;;;48.70;8.87;;;;;;;;;;4991422;28;20178;-49
2022/04/12 02:31:28;;;;;;;48.30;9.00;;;;;;;;;;4992161;28;20236;-48
2022/04/12 02:33:54;;;;;;;50.83;9.27;;;;;;;;;;4992196;28;20678;-49
2022/04/12 02:36:20;;;;;;;58.03;10.50;;;;;;;;;;4992148;28;20221;-48
2022/04/12 02:38:46;;;;;;;49.30;9.13;;;;;;;;;;4992418;28;20297;-48
2022/04/12 02:41:11;;;;;;;23.97;4.80;;;;;;;;;;4991196;28;20189;-49
2022/04/12 02:43:37;;;;;;;43.10;8.17;;;;;;;;;;4992106;28;20228;-49
2022/04/12 02:46:03;;;;;;;44.33;8.03;;;;;;;;;;4991956;28;20594;-49
2022/04/12 02:48:29;;;;;;;48.80;8.83;;;;;;;;;;4974616;28;20245;-49
2022/04/12 02:50:55;;;;;;;53.63;9.73;;;;;;;;;;4991789;28;20217;-48
2022/04/12 02:53:21;;;;;;;35.67;6.87;;;;;;;;;;4991829;28;20172;-48
2022/04/12 02:55:47;;;;;;;45.80;8.37;;;;;;;;;;4992127;28;20296;-48
2022/04/12 02:58:13;;;;;;;49.70;9.07;;;;;;;;;;4991717;28;20224;-48
2022/04/12 03:00:39;;;;;;;55.17;10.10;;;;;;;;;;4991425;28;20214;-48
2022/04/12 03:03:05;;;;;;;43.17;8.03;;;;;;;;;;4991735;28;20218;-49
2022/04/12 03:05:31;;;;;;;29.70;5.73;;;;;;;;;;4991382;28;20675;-49
2022/04/12 03:07:57;;;;;;;48.07;8.63;;;;;;;;;;4992088;28;20209;-49
2022/04/12 03:10:23;;;;;;;50.30;8.77;;;;;;;;;;4989233;28;20717;-48
2022/04/12 03:12:50;;;;;;;60.17;10.93;;;;;;;;;;4978867;28;20453;-49
2022/04/12 03:15:16;;;;;;;47.53;8.63;;;;;;;;;;4971760;28;20249;-48
2022/04/12 03:17:42;;;;;;;56.37;10.00;;;;;;;;;;4972060;28;20233;-48
2022/04/12 03:20:08;;;;;;;45.30;8.43;;;;;;;;;;4972044;28;20651;-49
2022/04/12 03:22:34;;;;;;;55.47;10.30;;;;;;;;;;4971955;28;20269;-48
2022/04/12 03:25:01;;;;;;;53.10;10.00;;;;;;;;;;4971867;28;20221;-49
2022/04/12 03:27:27;;;;;;;50.93;9.20;;;;;;;;;;4971786;28;20221;-49
2022/04/12 03:29:53;;;;;;;52.07;9.53;;;;;;;;;;4971504;28;20575;-48
2022/04/12 03:32:19;;;;;;;46.97;9.13;;;;;;;;;;4972024;28;20189;-49
2022/04/12 03:34:46;;;;;;;73.50;14.47;;;;;;;;;;4972286;28;20201;-48
2022/04/12 03:37:13;;;;;;;44.33;8.93;;;;;;;;;;4971690;28;20229;-49
2022/04/12 03:39:39;;;;;;;44.43;9.10;;;;;;;;;;4971563;28;20229;-48
2022/04/12 03:42:05;;;;;;;29.80;6.07;;;;;;;;;;4971570;28;20240;-48
2022/04/12 03:44:31;;;;;;;39.50;8.40;;;;;;;;;;4971409;28;20193;-49
2022/04/12 03:46:57;;;;;;;43.33;8.43;;;;;;;;;;4971806;28;20569;-49
2022/04/12 03:49:23;;;;;;;19.30;4.20;;;;;;;;;;4971562;28;20228;-49
2022/04/12 03:51:49;;;;;;;51.37;9.67;;;;;;;;;;4971233;28;20213;-49
2022/04/12 03:54:15;;;;;;;48.40;9.53;;;;;;;;;;4971579;28;20291;-48
2022/04/12 03:56:43;;;;;;;59.10;11.03;;;;;;;;;;4970987;28;20218;-48
2022/04/12 03:59:09;;;;;;;37.00;7.20;;;;;;;;;;4971838;28;20190;-48
2022/04/12 04:01:35;;;;;;;61.20;11.33;;;;;;;;;;4971073;28;20218;-49
2022/04/12 04:04:00;;;;;;;64.27;11.97;;;;;;;;;;4971527;28;20221;-49
2022/04/12 04:06:26;;;;;;;56.10;10.50;;;;;;;;;;4970887;28;20769;-48
2022/04/12 04:08:52;;;;;;;48.57;9.07;;;;;;;;;;4971288;28;20218;-48
2022/04/12 04:11:18;;;;;;;46.03;8.97;;;;;;;;;;4970942;28;20244;-49
2022/04/12 04:13:44;;;;;;;61.10;11.50;;;;;;;;;;4971605;28;20182;-49
2022/04/12 04:16:10;;;;;;;56.53;12.17;;;;;;;;;;4970856;28;20229;-49
2022/04/12 04:18:36;;;;;;;51.33;11.13;;;;;;;;;;4971322;28;20683;-49
2022/04/12 04:21:03;;;;;;;55.50;11.53;;;;;;;;;;4971189;28;20650;-49
2022/04/12 04:23:29;;;;;;;67.30;13.97;;;;;;;;;;4975415;28;20699;-49
2022/04/12 04:25:55;;;;;;;53.70;11.23;;;;;;;;;;4975383;28;20272;-48
2022/04/12 04:28:26;;;;;;;55.70;11.57;;;;;;;;;;4975028;28;20214;-48
2022/04/12 04:30:52;;;;;;;50.27;10.10;;;;;;;;;;4974828;28;20251;-49
2022/04/12 04:33:18;;;;;;;59.30;12.60;;;;;;;;;;4975026;28;20297;-48
2022/04/12 04:35:45;;;;;;;74.00;15.23;;;;;;;;;;4974760;28;20233;-48
2022/04/12 04:38:11;;;;;;;63.00;12.50;;;;;;;;;;4975419;28;20265;-48
2022/04/12 04:40:37;;;;;;;47.87;9.90;;;;;;;;;;4974559;28;20225;-48
2022/04/12 04:43:03;;;;;;;70.03;14.40;;;;;;;;;;4974860;28;20221;-49
2022/04/12 04:45:29;;;;;;;41.07;9.03;;;;;;;;;;4974752;28;20214;-48
2022/04/12 04:47:57;;;;;;;26.57;5.70;;;;;;;;;;4974660;28;20214;-48
2022/04/12 04:50:23;;;;;;;46.37;10.17;;;;;;;;;;4973015;28;20548;-49
2022/04/12 04:52:50;;;;;;;56.17;11.47;;;;;;;;;;4975186;28;20253;-49
2022/04/12 04:55:16;;;;;;;51.17;10.57;;;;;;;;;;4974343;28;20226;-49
2022/04/12 04:57:43;;;;;;;51.23;10.70;;;;;;;;;;4973414;28;20333;-49
2022/04/12 05:00:15;;;;;;;50.20;11.13;;;;;;;;;;4974072;28;20280;-48
2022/04/12 05:02:42;;;;;;;70.07;14.83;;;;;;;;;;4974281;28;20218;-49
2022/04/12 05:09:27;;;;;;;67.47;12.37;;;;;;;;;;5047465;28;20626;-47
2022/04/12 05:11:53;;;;;;;56.77;10.17;;;;;;;;;;5027167;28;20628;-47
2022/04/12 05:14:19;;;;;;;69.77;12.30;;;;;;;;;;5027492;28;20157;-47
2022/04/12 05:16:45;;;;;;;43.30;8.03;;;;;;;;;;5027480;28;20192;-47
2022/04/12 05:19:11;;;;;;;70.87;12.30;;;;;;;;;;5043045;28;20589;-47
2022/04/12 05:21:37;;;;;;;61.40;10.83;;;;;;;;;;5046891;28;20219;-51
2022/04/12 05:24:04;;;;;;;69.43;11.87;;;;;;;;;;5046989;28;20226;-48
2022/04/12 05:26:31;;;;;;;39.47;8.03;;;;;;;;;;5046690;28;20226;-48
2022/04/12 05:28:57;;;;;;;59.40;11.60;;;;;;;;;;5047130;28;20195;-49
2022/04/12 05:31:23;;;;;;;53.90;10.50;;;;;;;;;;5045340;28;20333;-50
2022/04/12 05:33:50;;;;;;;31.33;6.60;;;;;;;;;;5046995;28;20303;-49
2022/04/12 05:36:16;;;;;;;54.27;10.03;;;;;;;;;;5046907;28;20234;-49
2022/04/12 05:38:42;;;;;;;59.60;11.43;;;;;;;;;;5046832;28;20211;-49
2022/04/12 05:41:08;;;;;;;49.50;9.73;;;;;;;;;;5046302;28;20184;-49
2022/04/12 05:43:34;;;;;;;94.53;17.70;;;;;;;;;;5046388;28;20565;-49
2022/04/12 05:45:59;;;;;;;77.53;15.33;;;;;;;;;;5046052;28;20223;-49
2022/04/12 05:48:25;;;;;;;51.53;10.53;;;;;;;;;;5046420;28;20227;-50
2022/04/12 05:50:51;;;;;;;53.00;10.70;;;;;;;;;;5045948;28;20675;-50
2022/04/12 05:53:18;;;;;;;56.37;11.33;;;;;;;;;;5046375;28;20229;-49
2022/04/12 05:55:44;;;;;;;48.90;10.10;;;;;;;;;;5047046;28;20558;-50
2022/04/12 05:58:10;;;;;;;83.33;16.50;;;;;;;;;;5045679;28;20211;-50
2022/04/12 06:00:36;;;;;;;54.60;10.97;;;;;;;;;;5046220;28;20211;-49
2022/04/12 06:03:06;;;;;;;66.60;13.83;;;;;;;;;;5046020;28;20222;-49
2022/04/12 06:05:32;;;;;;;66.20;13.57;;;;;;;;;;5046063;28;20199;-50
2022/04/12 06:08:03;;;;;;;60.40;11.97;;;;;;;;;;5046677;28;20216;-50
2022/04/12 06:10:29;;;;;;;50.70;10.20;;;;;;;;;;5045840;28;20226;-49
2022/04/12 06:12:55;;;;;;;39.40;8.13;;;;;;;;;;5043971;28;20238;-49
2022/04/12 06:15:21;;;;;;;73.67;15.00;;;;;;;;;;5043689;28;20223;-49
2022/04/12 06:17:47;;;;;;;64.70;13.50;;;;;;;;;;5043059;28;20226;-50
2022/04/12 06:20:14;;;;;;;65.33;13.43;;;;;;;;;;5034572;28;20219;-50
2022/04/12 06:22:41;;;;;;;72.50;14.07;;;;;;;;;;5030326;28;20230;-49
2022/04/12 06:25:08;;;;;;;71.87;14.17;;;;;;;;;;5031504;28;20238;-49
2022/04/12 06:27:35;;;;;;;60.27;12.33;;;;;;;;;;5032578;28;20247;-49
2022/04/12 06:30:08;;;;;;;60.83;12.03;;;;;;;;;;5032042;28;20314;-50
2022/04/12 06:32:35;;;;;;;59.10;12.23;;;;;;;;;;5032510;28;20254;-49
2022/04/12 06:35:01;;;;;;;79.20;16.33;;;;;;;;;;5032893;28;20180;-50
2022/04/12 06:37:28;;;;;;;42.50;9.20;;;;;;;;;;5032403;28;20708;-49
2022/04/12 06:39:54;;;;;;;60.63;12.27;;;;;;;;;;5032376;28;20649;-46
2022/04/12 06:42:20;;;;;;;99.77;20.40;;;;;;;;;;5030756;28;20222;-46
2022/04/12 06:44:46;;;;;;;63.47;13.27;;;;;;;;;;5032030;28;20212;-47
2022/04/12 06:47:14;;;;;;;45.50;9.80;;;;;;;;;;5032973;28;20257;-47
2022/04/12 06:49:42;;;;;;;44.83;9.67;;;;;;;;;;5032030;28;20224;-46
2022/04/12 06:52:08;;;;;;;72.77;14.93;;;;;;;;;;5032117;28;20562;-46
2022/04/12 06:54:34;;;;;;;61.90;12.80;;;;;;;;;;5032338;28;20290;-46
2022/04/12 06:57:00;;;;;;;56.60;12.07;;;;;;;;;;5032476;28;20303;-47
2022/04/12 06:59:26;;;;;;;61.63;12.83;;;;;;;;;;5032079;28;20172;-50
2022/04/12 07:01:52;;;;;;;45.97;9.53;;;;;;;;;;5032301;28;20679;-50
2022/04/12 07:04:18;;;;;;;55.87;11.67;;;;;;;;;;5032005;28;20588;-51
2022/04/12 07:06:44;;;;;;;236.53;48.27;;;;;;;;;;4996361;28;20224;-50
2022/04/12 07:09:16;;;;;;;228.70;46.23;;;;;;;;;;4985315;28;20227;-50
2022/04/12 07:11:43;;;;;;;189.93;38.47;;;;;;;;;;4997846;28;20582;-49
2022/04/12 07:14:09;;;;;;;150.47;35.40;;;;;;;;;;4990667;28;20204;-50
2022/04/12 07:16:34;;;;;;;265.57;114.33;;;;;;;;;;4997501;28;20247;-49
2022/04/12 07:19:00;;;;;;;251.17;78.87;;;;;;;;;;4983834;28;20216;-50
2022/04/12 07:21:29;;;;;;;142.10;24.43;;;;;;;;;;4989627;28;20240;-49
2022/04/12 07:23:55;;;;;;;46.47;8.63;;;;;;;;;;5010155;28;20223;-50
2022/04/12 07:26:21;;;;;;;66.37;11.93;;;;;;;;;;5008899;28;20586;-50
2022/04/12 07:28:46;;;;;;;83.00;14.17;;;;;;;;;;5010570;28;20232;-50
2022/04/12 07:31:12;;;;;;;85.33;14.93;;;;;;;;;;5008687;28;20224;-51
2022/04/12 07:33:38;;;;;;;71.17;12.40;;;;;;;;;;5009836;28;20254;-50
2022/04/12 07:36:05;;;;;;;71.67;12.57;;;;;;;;;;5009961;28;20573;-50
2022/04/12 07:38:31;;;;;;;70.70;12.33;;;;;;;;;;5009925;28;20188;-50
2022/04/12 07:40:57;;;;;;;56.00;10.03;;;;;;;;;;5010588;28;20526;-49
2022/04/12 07:43:23;;;;;;;55.93;9.93;;;;;;;;;;5027776;28;20234;-50
2022/04/12 07:45:49;;;;;;;66.90;12.23;;;;;;;;;;5029341;28;20696;-51
2022/04/12 07:48:15;;;;;;;59.93;11.13;;;;;;;;;;5029530;28;20310;-50
2022/04/12 07:50:41;;;;;;;67.20;12.70;;;;;;;;;;5029152;28;20621;-50
2022/04/12 07:53:07;;;;;;;60.10;11.37;;;;;;;;;;5030192;28;20177;-50
2022/04/12 07:55:33;;;;;;;75.93;14.57;;;;;;;;;;5029155;28;20230;-51
2022/04/12 07:57:59;;;;;;;66.60;12.73;;;;;;;;;;5029126;28;20216;-51
2022/04/12 08:00:25;;;;;;;57.40;11.40;;;;;;;;;;5029209;28;20364;-51
2022/04/12 08:02:51;;;;;;;73.90;14.27;;;;;;;;;;5029383;28;20580;-50
2022/04/12 08:05:17;;;;;;;69.63;12.90;;;;;;;;;;5027759;28;20184;-50
2022/04/12 08:07:47;;;;;;;75.57;13.77;;;;;;;;;;5029618;28;20208;-50
2022/04/12 08:10:15;;;;;;;62.23;11.87;;;;;;;;;;5027663;28;20222;-50
2022/04/12 08:12:41;;;;;;;50.70;9.63;;;;;;;;;;5029661;28;20278;-50
2022/04/12 08:15:07;;;;;;;78.23;14.70;;;;;;;;;;5028643;28;20635;-50
2022/04/12 08:17:33;;;;;;;59.70;11.03;;;;;;;;;;5029440;28;20219;-50
2022/04/12 08:19:59;;;;;;;81.27;14.80;;;;;;;;;;5029070;28;20602;-51
2022/04/12 08:22:25;;;;;;;77.53;14.80;;;;;;;;;;5029137;28;20297;-51
2022/04/12 08:24:52;;;;;;;66.13;12.73;;;;;;;;;;5028802;28;20223;-51
2022/04/12 08:27:18;;;;;;;76.50;14.20;;;;;;;;;;5028828;28;20752;-51
2022/04/12 08:29:45;;;;;;;61.17;12.37;;;;;;;;;;5027911;28;20176;-50
2022/04/12 08:32:11;;;;;;;56.17;11.73;;;;;;;;;;5028955;28;20184;-51
2022/04/12 08:34:37;;;;;;;94.47;18.23;;;;;;;;;;5027495;28;20215;-51
2022/04/12 08:37:05;;;;;;;81.67;15.30;;;;;;;;;;5028111;28;20220;-51
2022/04/12 08:39:31;;;;;;;74.30;14.67;;;;;;;;;;5028431;28;20281;-51
2022/04/12 08:41:59;;;;;;;64.30;12.03;;;;;;;;;;5027823;28;20692;-51
2022/04/12 08:44:25;;;;;;;50.43;10.47;;;;;;;;;;5028299;28;20214;-51
2022/04/12 08:46:51;;;;;;;40.70;8.37;;;;;;;;;;5028274;28;20192;-51
2022/04/12 08:49:17;;;;;;;84.53;17.00;;;;;;;;;;5027721;28;20259;-51
2022/04/12 08:51:46;;;;;;;71.93;15.80;;;;;;;;;;5027694;28;20274;-51
2022/04/12 08:54:12;;;;;;;78.17;16.80;;;;;;;;;;5028302;28;20212;-51
2022/04/12 08:56:40;;;;;;;74.23;16.30;;;;;;;;;;5028417;28;20227;-51
2022/04/12 08:59:06;;;;;;;73.80;16.30;;;;;;;;;;5026962;28;20168;-50
2022/04/12 09:01:32;;;;;;;64.67;14.60;;;;;;;;;;5026523;28;20215;-51
2022/04/12 09:03:58;;;;;;;59.90;14.03;;;;;;;;;;5028272;28;20220;-51
2022/04/12 09:06:24;;;;;;;41.80;10.07;;;;;;;;;;5027830;28;20220;-51
2022/04/12 09:08:50;;;;;;;91.30;18.47;;;;;;;;;;5027917;28;20322;-50
2022/04/12 09:11:17;;;;;;;119.53;24.23;;;;;;;;;;5027993;28;20183;-51
2022/04/12 09:13:58;;;;;;;53.13;13.07;;;;;;;;;;5028111;28;20274;-51
2022/04/12 09:16:24;;;;;;;82.83;37.73;;;;;;;;;;5027742;28;20223;-50
2022/04/12 09:18:50;;;;;;;112.40;69.17;;;;;;;;;;5026594;28;20223;-50
2022/04/12 09:21:20;;;;;;;148.13;90.20;;;;;;;;;;5027960;28;20211;-51
2022/04/12 09:23:47;;;;;;;151.97;95.97;;;;;;;;;;5028031;28;20239;-50
2022/04/12 09:26:17;;;;;;;209.43;118.57;;;;;;;;;;5027496;28;20207;-50
2022/04/12 09:28:43;;;;;;;117.00;69.83;;;;;;;;;;5027503;28;20226;-51
2022/04/12 09:31:15;;;;;;;79.93;19.97;;;;;;;;;;5027334;28;20224;-51
2022/04/12 09:33:42;;;;;;;75.27;17.37;;;;;;;;;;5026228;28;20338;-50
2022/04/12 09:36:08;;;;;;;58.70;14.17;;;;;;;;;;5026409;28;20212;-51
2022/04/12 09:38:36;;;;;;;91.77;23.30;;;;;;;;;;5027181;28;20180;-50
2022/04/12 09:41:22;;;;;;;73.33;16.90;;;;;;;;;;5028212;28;20259;-51
2022/04/12 09:43:54;;;;;;;86.53;19.53;;;;;;;;;;5027721;28;20215;-51
2022/04/12 09:46:20;;;;;;;75.00;17.50;;;;;;;;;;5027219;28;20227;-50
2022/04/12 09:48:47;;;;;;;75.93;17.47;;;;;;;;;;5027625;28;20661;-51
2022/04/12 09:51:13;;;;;;;46.53;10.93;;;;;;;;;;5027511;28;20251;-52
2022/04/12 09:53:40;;;;;;;55.00;12.03;;;;;;;;;;5027999;28;20223;-51
2022/04/12 09:56:15;;;;;;;53.20;11.90;;;;;;;;;;5031445;28;20283;-51
2022/04/12 09:58:42;;;;;;;46.27;9.43;;;;;;;;;;5031211;28;20211;-51
2022/04/12 10:01:10;;;;;;;65.40;13.07;;;;;;;;;;5031102;28;20285;-52
2022/04/12 10:03:37;;;;;;;75.60;14.13;;;;;;;;;;5030997;28;20224;-52
2022/04/12 10:06:04;;;;;;;62.70;13.40;;;;;;;;;;5031156;28;20565;-51
2022/04/12 10:08:31;;;;;;;66.80;14.93;;;;;;;;;;5031238;28;20227;-53
2022/04/12 10:10:58;;;;;;;69.77;14.07;;;;;;;;;;5031456;28;20168;-52
2022/04/12 10:13:24;;;;;;;76.60;15.83;;;;;;;;;;5031319;28;20215;-51
2022/04/12 10:15:51;;;;;;;68.67;13.80;;;;;;;;;;5030693;28;20347;-52
2022/04/12 10:18:19;;;;;;;67.17;14.07;;;;;;;;;;5031088;28;20223;-52
2022/04/12 10:20:45;;;;;;;71.77;14.30;;;;;;;;;;5030295;28;20295;-51
2022/04/12 10:23:11;;;;;;;57.60;10.83;;;;;;;;;;5031703;28;20606;-52
2022/04/12 10:25:37;;;;;;;61.67;11.70;;;;;;;;;;5031071;28;20216;-52
2022/04/12 10:28:05;;;;;;;73.73;13.80;;;;;;;;;;5030644;28;20230;-52
2022/04/12 10:30:32;;;;;;;67.83;13.20;;;;;;;;;;5030664;28;20243;-51
2022/04/12 10:32:59;;;;;;;88.50;15.80;;;;;;;;;;5030582;28;20216;-52
2022/04/12 10:35:26;;;;;;;57.33;11.80;;;;;;;;;;5030814;28;20732;-52
2022/04/12 10:37:54;;;;;;;50.60;10.10;;;;;;;;;;5031188;28;20226;-52
2022/04/12 10:40:20;;;;;;;64.73;12.83;;;;;;;;;;5030336;28;20258;-52
2022/04/12 10:42:49;;;;;;;72.17;14.27;;;;;;;;;;5030642;28;20663;-52
2022/04/12 10:45:15;;;;;;;69.03;13.03;;;;;;;;;;5030041;28;20629;-52
2022/04/12 10:47:43;;;;;;;95.05;17.25;;;;;;;;;;5030288;28;20421;-52
2022/04/12 10:50:10;;;;;;;42.38;8.20;;;;;;;;;;5030317;28;20800;-52
2022/04/12 10:52:42;;;;;;;108.28;19.60;;;;;;;;;;5010358;28;20305;-52
2022/04/12 10:55:35;;;;;;;94.10;17.57;;;;;;;;;;4995417;28;20735;-52
2022/04/12 10:58:19;;;;;;;280.83;47.20;;;;;;;;;;4986569;28;20208;-52
2022/04/12 11:00:46;;;;;;;179.00;36.57;;;;;;;;;;4986706;28;20307;-52
2022/04/12 11:03:12;;;;;;;181.13;35.63;;;;;;;;;;4966309;28;20280;-53
2022/04/12 11:05:39;;;;;;;179.37;35.73;;;;;;;;;;4994861;28;20228;-53
2022/04/12 11:08:25;;;;;;;211.77;43.00;;;;;;;;;;4998465;28;20287;-52
2022/04/12 11:10:52;;;;;;;151.15;29.00;;;;;;;;;;4990888;28;20588;-52
2022/04/12 11:13:21;;;;;;;115.28;22.90;;;;;;;;;;4998226;28;21002;-52
2022/04/12 11:15:54;;;;;;;286.37;57.47;;;;;;;;;;4990485;28;20616;-53
2022/04/12 11:18:20;;;;;;;156.93;29.73;;;;;;;;;;4993403;28;20265;-52
2022/04/12 11:20:58;;;;;;;221.10;44.17;;;;;;;;;;4987306;28;20523;-53
2022/04/12 11:23:43;;;;;;;157.57;31.65;;;;;;;;;;4983955;28;20196;-52
2022/04/12 11:26:26;;;;;;;188.57;44.67;;;;;;;;;;4992561;28;20201;-52
2022/04/12 11:28:53;;;;;;;273.83;72.72;;;;;;;;;;4989111;28;20274;-52
2022/04/12 11:31:19;;;;;;;168.82;42.22;;;;;;;;;;4991481;28;20217;-52
2022/04/12 11:33:45;;;;;;;179.32;49.40;;;;;;;;;;4989150;28;20224;-53
2022/04/12 11:36:12;;;;;;;142.57;49.88;;;;;;;;;;4992798;28;20232;-53
2022/04/12 11:38:38;;;;;;;237.60;83.50;;;;;;;;;;4992263;28;20307;-52
2022/04/12 11:41:04;;;;;;;287.00;127.30;;;;;;;;;;5001026;28;20316;-52
2022/04/12 11:43:30;;;;;;;235.18;128.27;;;;;;;;;;4993661;28;20224;-53
2022/04/12 11:45:57;;;;;;;358.87;188.63;;;;;;;;;;4994718;28;20232;-52
2022/04/12 11:48:27;;;;;;;221.23;135.52;;;;;;;;;;4997011;28;20231;-52
2022/04/12 11:50:53;;;;;;;161.18;74.15;;;;;;;;;;4994456;28;20213;-53
2022/04/12 11:53:23;;;;;;;239.68;122.30;;;;;;;;;;4982856;28;20618;-52
2022/04/12 11:55:49;;;;;;;265.60;149.45;;;;;;;;;;4995454;28;20282;-52
2022/04/12 11:58:16;;;;;;;280.40;156.85;;;;;;;;;;4991445;28;20213;-52
2022/04/12 12:00:42;;;;;;;364.50;194.13;;;;;;;;;;4987798;28;20697;-52
2022/04/12 12:03:15;;;;;;;172.20;34.53;;;;;;;;;;4980963;28;20216;-53
2022/04/12 12:05:41;;;;;;;316.23;65.93;;;;;;;;;;4982168;28;21901;-53
2022/04/12 12:08:07;;;;;;;165.63;33.78;;;;;;;;;;4986999;28;20321;-53
2022/04/12 12:10:33;;;;;;;111.20;24.05;;;;;;;;;;4990444;28;20372;-53
2022/04/12 12:13:04;;;;;;;201.77;41.47;;;;;;;;;;4994342;28;20391;-52
2022/04/12 12:15:30;;;;;;;146.82;31.10;;;;;;;;;;5000487;28;20302;-53
2022/04/12 12:17:57;;;;;;;110.30;23.02;;;;;;;;;;5005041;28;20216;-53
2022/04/12 12:20:25;;;;;;;246.93;52.90;;;;;;;;;;4983356;28;20466;-53
2022/04/12 12:22:52;;;;;;;136.32;27.48;;;;;;;;;;4992690;28;20188;-52
2022/04/12 12:25:18;;;;;;;228.80;43.10;;;;;;;;;;4993627;28;21094;-52
2022/04/12 12:27:52;;;;;;;179.60;35.00;;;;;;;;;;5003983;28;20303;-52
2022/04/12 12:30:20;;;;;;;128.40;24.42;;;;;;;;;;4996978;28;20375;-54
2022/04/12 12:32:46;;;;;;;175.20;34.25;;;;;;;;;;4987200;28;20606;-53
2022/04/12 12:35:14;;;;;;;225.30;44.80;;;;;;;;;;4988732;28;20180;-53
2022/04/12 12:37:41;;;;;;;145.30;27.42;;;;;;;;;;4997761;28;20234;-52
2022/04/12 12:40:27;;;;;;;100.00;19.42;;;;;;;;;;4994265;28;20212;-53
2022/04/12 12:42:54;;;;;;;126.78;24.00;;;;;;;;;;4988827;28;20212;-53
2022/04/12 12:45:24;;;;;;;105.57;20.45;;;;;;;;;;4988401;28;21199;-53
2022/04/12 12:47:51;;;;;;;160.93;31.35;;;;;;;;;;4992462;28;20215;-53
2022/04/12 12:50:18;;;;;;;185.65;35.97;;;;;;;;;;4991112;28;20219;-53
2022/04/12 12:52:44;;;;;;;199.65;39.55;;;;;;;;;;4995393;28;21554;-53
2022/04/12 12:55:15;;;;;;;227.23;45.72;;;;;;;;;;4994156;28;20672;-53
2022/04/12 12:57:48;;;;;;;146.05;28.83;;;;;;;;;;5000041;28;20228;-53
2022/04/12 13:00:15;;;;;;;92.50;18.80;;;;;;;;;;4998768;28;20300;-53
2022/04/12 13:02:42;;;;;;;154.80;31.80;;;;;;;;;;4987727;28;20630;-53
2022/04/12 13:05:09;;;;;;;141.93;28.50;;;;;;;;;;4982142;28;23487;-53
2022/04/12 13:07:37;;;;;;;104.55;22.23;;;;;;;;;;4997390;28;20219;-53
2022/04/12 13:10:07;;;;;;;188.65;38.65;;;;;;;;;;4989534;28;20561;-53
2022/04/12 13:12:33;;;;;;;238.93;47.58;;;;;;;;;;4986441;28;20219;-53
2022/04/12 13:14:59;;;;;;;283.67;58.33;;;;;;;;;;4983532;28;20220;-53
2022/04/12 13:17:25;;;;;;;186.20;37.80;;;;;;;;;;4981821;28;20204;-53
2022/04/12 13:19:51;;;;;;;208.77;42.15;;;;;;;;;;4989197;28;20579;-53
2022/04/12 13:22:18;;;;;;;285.35;57.80;;;;;;;;;;4982284;28;20216;-53
2022/04/12 13:24:44;;;;;;;211.23;50.85;;;;;;;;;;4985532;28;20204;-52
2022/04/12 13:27:10;;;;;;;191.20;45.10;;;;;;;;;;4994771;28;20261;-53
2022/04/12 13:29:36;;;;;;;192.13;42.90;;;;;;;;;;4988664;28;21729;-53
2022/04/12 13:32:02;;;;;;;198.07;43.95;;;;;;;;;;4998308;28;20271;-53
2022/04/12 13:34:28;;;;;;;116.78;25.58;;;;;;;;;;4996712;28;20213;-53
2022/04/12 13:36:54;;;;;;;103.97;22.92;;;;;;;;;;5008067;28;20592;-53
2022/04/12 13:39:20;;;;;;;131.57;27.88;;;;;;;;;;5011706;28;20223;-53
2022/04/12 13:41:47;;;;;;;69.78;16.73;;;;;;;;;;5002944;28;20610;-53
2022/04/12 13:44:13;;;;;;;121.57;27.65;;;;;;;;;;5001227;28;20219;-53
2022/04/12 13:46:39;;;;;;;109.97;26.30;;;;;;;;;;5005270;28;20683;-53
2022/04/12 13:49:05;;;;;;;67.90;16.67;;;;;;;;;;5008724;28;20204;-53
2022/04/12 13:51:31;;;;;;;182.32;44.10;;;;;;;;;;4997197;28;20266;-53
2022/04/12 13:53:57;;;;;;;92.32;24.45;;;;;;;;;;5008241;28;20224;-53
2022/04/12 13:56:23;;;;;;;166.95;43.00;;;;;;;;;;5004515;28;20204;-51
2022/04/12 13:58:49;;;;;;;105.07;32.42;;;;;;;;;;5004215;28;21085;-51
2022/04/12 14:01:15;;;;;;;176.05;54.85;;;;;;;;;;4995771;28;20307;-51
2022/04/12 14:03:41;;;;;;;457.05;152.90;;;;;;;;;;4997398;28;21742;-52
2022/04/12 14:06:07;;;;;;;282.35;92.85;;;;;;;;;;4978137;28;20216;-51
2022/04/12 14:08:35;;;;;;;165.05;59.92;;;;;;;;;;4993298;28;20694;-51
2022/04/12 14:11:01;;;;;;;181.05;64.30;;;;;;;;;;4994726;28;20223;-51
2022/04/12 14:13:27;;;;;;;220.20;90.18;;;;;;;;;;4992613;28;20349;-51
2022/04/12 14:15:53;;;;;;;252.63;112.05;;;;;;;;;;4966458;28;20292;-51
2022/04/12 14:18:19;;;;;;;155.98;98.28;;;;;;;;;;5003992;28;20274;-51
2022/04/12 14:20:46;;;;;;;171.00;89.00;;;;;;;;;;4999376;28;20214;-51